Time;durP1;ratioP1;P1;durP2;ratioP2;P2;SDS_P1;SDS_P2;PMS_P1;PMS_P2;Temp;Humidity;BMP_temperature;BMP_pressure;BME280_temperature;BME280_humidity;BME280_pressure;Samples;Min_cycle;Max_cycle;Signal;HPM_P1;HPM_P2
2023/06/05 00:01:42;;;;;;;17.80;7.60;;;436.00;2355.20;;;;;;5052981;28;20111;-82
2023/06/05 00:04:08;;;;;;;14.45;8.35;;;435.90;2304.00;;;;;;5053755;28;20028;-82
2023/06/05 00:06:34;;;;;;;12.73;8.05;;;435.80;2176.00;;;;;;5052296;28;20048;-82
2023/06/05 00:09:00;;;;;;;14.10;9.10;;;435.80;2355.20;;;;;;5052588;28;20024;-82
2023/06/05 00:11:26;;;;;;;20.25;9.75;;;435.70;2355.20;;;;;;5052671;28;20453;-83
2023/06/05 00:13:53;;;;;;;15.30;9.70;;;435.80;2355.20;;;;;;5052390;28;20037;-82
2023/06/05 00:16:20;;;;;;;15.68;9.63;;;435.60;2355.20;;;;;;5053920;28;20021;-81
2023/06/05 00:18:46;;;;;;;15.23;8.75;;;435.60;2355.20;;;;;;5052338;28;20457;-81
2023/06/05 00:21:19;;;;;;;12.85;8.35;;;435.60;2355.20;;;;;;5052638;28;20112;-82
2023/06/05 00:23:45;;;;;;;11.00;7.43;;;435.60;2355.20;;;;;;5052639;28;20423;-82
2023/06/05 00:26:11;;;;;;;10.60;6.78;;;435.60;2355.20;;;;;;5053749;28;20029;-83
2023/06/05 00:28:38;;;;;;;9.52;7.15;;;435.70;2355.20;;;;;;5052596;28;20029;-82
2023/06/05 00:31:05;;;;;;;17.50;8.48;;;435.80;2355.20;;;;;;5052463;28;20033;-82
2023/06/05 00:33:31;;;;;;;10.82;8.55;;;435.60;2201.60;;;;;;5052028;28;20033;-83
2023/06/05 00:35:57;;;;;;;10.88;7.63;;;435.50;2355.20;;;;;;5052441;28;20086;-83
2023/06/05 00:38:23;;;;;;;12.85;8.05;;;435.50;2355.20;;;;;;5051985;28;20021;-83
2023/06/05 00:40:49;;;;;;;11.68;7.88;;;435.50;2355.20;;;;;;5052147;28;20021;-82
2023/06/05 00:43:14;;;;;;;9.90;7.65;;;435.60;2355.20;;;;;;5053772;28;20029;-83
2023/06/05 00:45:40;;;;;;;12.73;7.43;;;435.70;2355.20;;;;;;5052433;28;20036;-83
2023/06/05 00:48:07;;;;;;;9.80;6.70;;;435.60;2355.20;;;;;;5051998;28;20021;-82
2023/06/05 00:50:34;;;;;;;10.07;7.03;;;435.60;2355.20;;;;;;5052376;28;20139;-82
2023/06/05 00:53:05;;;;;;;10.82;7.28;;;435.60;1996.80;;;;;;5052281;28;20040;-83
2023/06/05 00:55:32;;;;;;;12.15;8.25;;;435.60;2355.20;;;;;;5051650;28;20031;-82
2023/06/05 00:57:58;;;;;;;12.15;6.90;;;435.60;2355.20;;;;;;5053409;28;20017;-83
2023/06/05 01:00:25;;;;;;;9.07;6.95;;;435.60;2355.20;;;;;;5051823;28;20030;-82
2023/06/05 01:02:53;;;;;;;13.90;7.75;;;435.60;2355.20;;;;;;5053072;28;20032;-82
2023/06/05 01:05:20;;;;;;;11.70;7.18;;;435.60;2355.20;;;;;;5051976;28;20085;-83
2023/06/05 01:07:48;;;;;;;11.05;7.53;;;436.10;2355.20;;;;;;5052022;28;20487;-83
2023/06/05 01:10:14;;;;;;;11.13;7.28;;;435.50;2355.20;;;;;;5052151;28;20468;-83
2023/06/05 01:13:10;;;;;;;13.15;7.90;;;435.50;2355.20;;;;;;5074977;28;20052;-83
2023/06/05 01:15:38;;;;;;;10.43;7.65;;;435.30;1971.20;;;;;;5064097;28;20045;-83
2023/06/05 01:18:04;;;;;;;11.32;7.25;;;435.30;2355.20;;;;;;5052217;28;20564;-82
2023/06/05 01:20:34;;;;;;;13.57;7.40;;;435.40;2355.20;;;;;;5052113;28;20060;-83
2023/06/05 01:23:02;;;;;;;19.40;11.55;;;435.30;2355.20;;;;;;5051871;28;20059;-83
2023/06/05 01:25:29;;;;;;;17.40;10.93;;;435.30;2355.20;;;;;;5050828;28;20380;-82
2023/06/05 01:28:02;;;;;;;13.57;10.18;;;435.30;2355.20;;;;;;5051985;28;20028;-83
2023/06/05 01:30:34;;;;;;;15.40;10.57;;;435.30;2355.20;;;;;;5052960;28;20029;-83
2023/06/05 01:33:12;;;;;;;14.60;9.48;;;435.30;2355.20;;;;;;5051946;28;20524;-83
2023/06/05 01:35:39;;;;;;;11.98;8.57;;;435.20;2355.20;;;;;;5068494;28;20029;-80
2023/06/05 01:38:06;;;;;;;12.30;7.75;;;410.50;2355.20;;;;;;5068699;28;20103;-83
2023/06/05 01:40:34;;;;;;;8.88;7.50;;;410.50;2355.20;;;;;;5053061;28;20029;-82
2023/06/05 01:43:01;;;;;;;10.45;7.85;;;435.20;2355.20;;;;;;5052763;28;20033;-82
2023/06/05 01:45:27;;;;;;;13.98;7.35;;;435.30;2355.20;;;;;;5053109;28;20021;-82
2023/06/05 01:47:54;;;;;;;10.82;7.97;;;435.20;2355.20;;;;;;5066693;28;20127;-83
2023/06/05 01:50:20;;;;;;;10.35;7.82;;;435.20;2355.20;;;;;;5070324;28;20475;-83
2023/06/05 01:52:47;;;;;;;16.52;8.48;;;410.50;2355.20;;;;;;5071814;28;20072;-82
2023/06/05 01:55:20;;;;;;;10.45;7.82;;;410.50;2329.60;;;;;;5071877;28;20491;-83
2023/06/05 01:57:46;;;;;;;15.10;9.43;;;410.50;2355.20;;;;;;5071548;28;20032;-82
2023/06/05 02:00:15;;;;;;;14.50;9.40;;;410.50;2355.20;;;;;;5056836;28;20057;-83
2023/06/05 02:02:45;;;;;;;14.93;9.15;;;410.40;2355.20;;;;;;5071753;28;20029;-82
2023/06/05 02:05:14;;;;;;;12.52;9.10;;;410.20;2355.20;;;;;;5071208;28;20155;-82
2023/06/05 02:07:48;;;;;;;16.20;8.50;;;410.30;2355.20;;;;;;5071683;28;20032;-83
2023/06/05 02:10:18;;;;;;;14.10;8.23;;;410.40;1971.20;;;;;;5071809;28;20074;-82
2023/06/05 02:12:44;;;;;;;12.13;8.10;;;410.40;1971.20;;;;;;5071171;28;20381;-82
2023/06/05 02:15:12;;;;;;;10.65;7.75;;;410.40;2355.20;;;;;;5071637;28;20032;-82
2023/06/05 02:17:44;;;;;;;11.45;7.32;;;410.40;2355.20;;;;;;5071159;28;20380;-83
2023/06/05 02:20:12;;;;;;;11.23;7.40;;;410.40;2355.20;;;;;;5056099;28;20060;-81
2023/06/05 02:22:39;;;;;;;13.45;7.57;;;410.40;2355.20;;;;;;5071377;28;20028;-82
2023/06/05 02:25:05;;;;;;;11.90;7.78;;;410.30;2355.20;;;;;;5071145;28;20426;-83
2023/06/05 02:27:31;;;;;;;10.02;7.70;;;410.40;2355.20;;;;;;5071143;28;20025;-82
2023/06/05 02:29:57;;;;;;;10.43;8.13;;;410.40;2355.20;;;;;;5071140;28;20051;-82
2023/06/05 02:32:25;;;;;;;13.45;8.63;;;410.30;1971.20;;;;;;5070911;28;20031;-83
2023/06/05 02:34:52;;;;;;;15.80;11.25;;;410.30;2355.20;;;;;;5071211;28;20375;-83
2023/06/05 02:37:18;;;;;;;15.80;10.88;;;410.30;2022.40;;;;;;5054535;28;20385;-82
2023/06/05 02:39:45;;;;;;;15.98;9.55;;;410.30;2355.20;;;;;;5037323;28;20065;-82
2023/06/05 02:42:12;;;;;;;17.77;9.70;;;410.20;2355.20;;;;;;5050963;28;20535;-81
2023/06/05 02:44:38;;;;;;;12.70;9.77;;;410.30;2355.20;;;;;;5034481;28;20029;-83
2023/06/05 02:47:04;;;;;;;12.60;8.90;;;410.20;2355.20;;;;;;5032640;28;20021;-81
2023/06/05 02:49:31;;;;;;;12.23;8.20;;;410.20;2355.20;;;;;;5044289;28;20054;-82
2023/06/05 02:51:57;;;;;;;11.15;8.50;;;410.00;2355.20;;;;;;5070375;28;20028;-82
2023/06/05 02:54:23;;;;;;;12.23;7.80;;;410.20;2355.20;;;;;;5055131;28;20167;-82
2023/06/05 02:56:49;;;;;;;16.65;8.60;;;410.20;2355.20;;;;;;5070497;28;20036;-83
2023/06/05 02:59:15;;;;;;;13.48;7.88;;;410.20;2355.20;;;;;;5055272;28;20021;-83
2023/06/05 03:01:43;;;;;;;13.57;8.13;;;410.00;2355.20;;;;;;5069790;28;20074;-83
2023/06/05 03:04:09;;;;;;;13.43;8.05;;;409.90;2355.20;;;;;;5055324;28;20036;-84
2023/06/05 03:06:35;;;;;;;12.75;7.50;;;409.80;2355.20;;;;;;5070433;28;20488;-83
2023/06/05 03:09:01;;;;;;;12.57;8.43;;;409.90;2355.20;;;;;;5054844;28;20070;-83
2023/06/05 03:11:27;;;;;;;12.02;8.43;;;409.90;2355.20;;;;;;5055109;28;20025;-83
2023/06/05 03:13:53;;;;;;;14.45;9.55;;;409.90;2355.20;;;;;;5070156;28;20468;-83
2023/06/05 03:16:19;;;;;;;12.90;8.40;;;410.10;2355.20;;;;;;5070540;28;20029;-83
2023/06/05 03:18:46;;;;;;;15.25;9.98;;;410.10;2355.20;;;;;;5069994;28;20061;-83
2023/06/05 03:21:12;;;;;;;18.60;13.88;;;409.90;2355.20;;;;;;5070047;28;20057;-83
2023/06/05 03:23:38;;;;;;;21.52;13.55;;;409.70;2355.20;;;;;;5054659;28;20032;-83
2023/06/05 03:26:03;;;;;;;19.58;10.73;;;409.70;2355.20;;;;;;5054609;28;20028;-83
2023/06/05 03:28:33;;;;;;;30.67;18.02;;;409.90;2355.20;;;;;;5053269;28;20025;-83
2023/06/05 03:31:00;;;;;;;32.22;19.73;;;410.00;2355.20;;;;;;5054720;28;20025;-83
2023/06/05 03:33:26;;;;;;;18.77;12.10;;;410.00;2355.20;;;;;;5053297;28;20033;-84
2023/06/05 03:35:52;;;;;;;13.55;10.23;;;410.00;2355.20;;;;;;5052815;28;20043;-83
2023/06/05 03:38:18;;;;;;;18.10;11.23;;;409.80;2355.20;;;;;;5048407;28;20021;-82
2023/06/05 03:40:44;;;;;;;15.93;11.32;;;409.70;2355.20;;;;;;5032710;28;20064;-83
2023/06/05 03:43:10;;;;;;;16.63;9.60;;;409.80;2355.20;;;;;;5033243;28;20655;-84
2023/06/05 03:45:40;;;;;;;12.07;8.25;;;409.70;2355.20;;;;;;5050075;28;20070;-84
2023/06/05 03:48:06;;;;;;;13.77;7.97;;;384.90;2329.60;;;;;;5050214;28;20036;-84
2023/06/05 03:50:37;;;;;;;13.25;8.50;;;384.80;2329.60;;;;;;5049728;28;20037;-84
2023/06/05 03:53:03;;;;;;;9.43;6.97;;;384.90;2329.60;;;;;;5050020;28;20030;-84
2023/06/05 03:55:40;;;;;;;14.43;7.85;;;409.70;2355.20;;;;;;5049818;28;20468;-84
2023/06/05 03:58:14;;;;;;;11.88;7.45;;;409.70;2355.20;;;;;;5050049;28;20029;-84
2023/06/05 04:00:44;;;;;;;11.05;8.55;;;409.80;2355.20;;;;;;5049919;28;20124;-84
2023/06/05 04:03:11;;;;;;;12.20;8.40;;;409.70;2355.20;;;;;;5049533;28;20067;-84
2023/06/05 04:05:41;;;;;;;17.48;8.75;;;409.80;2355.20;;;;;;5049432;28;20045;-84
2023/06/05 04:08:10;;;;;;;15.00;8.20;;;409.70;2355.20;;;;;;5049820;28;20152;-84
2023/06/05 04:10:36;;;;;;;9.85;7.60;;;409.80;2355.20;;;;;;5034137;28;20049;-84
2023/06/05 04:13:02;;;;;;;12.85;7.38;;;409.70;2355.20;;;;;;5048753;28;20111;-84
2023/06/05 04:15:29;;;;;;;13.75;8.10;;;410.00;2355.20;;;;;;5049745;28;20030;-83
2023/06/05 04:17:55;;;;;;;14.27;8.15;;;410.00;1971.20;;;;;;5049259;28;20028;-84
2023/06/05 04:20:21;;;;;;;16.38;8.05;;;410.20;2355.20;;;;;;5049672;28;20036;-84
2023/06/05 04:22:47;;;;;;;13.35;9.63;;;410.20;2355.20;;;;;;5033043;28;20385;-84
2023/06/05 04:25:14;;;;;;;12.52;8.93;;;410.30;2355.20;;;;;;5032789;28;20025;-84
2023/06/05 04:27:41;;;;;;;12.07;8.05;;;410.50;2355.20;;;;;;5049436;28;20044;-84
2023/06/05 04:30:09;;;;;;;12.40;8.27;;;410.50;2355.20;;;;;;5049579;28;20108;-84
2023/06/05 04:32:38;;;;;;;9.63;8.02;;;410.50;2355.20;;;;;;5049344;28;20107;-85
2023/06/05 04:35:05;;;;;;;17.27;8.88;;;410.50;2355.20;;;;;;5034354;28;20453;-84
2023/06/05 04:37:31;;;;;;;13.32;8.85;;;435.20;2355.20;;;;;;5049270;28;20079;-84
2023/06/05 04:39:58;;;;;;;14.50;9.57;;;410.50;2355.20;;;;;;5034043;28;20025;-84
2023/06/05 04:42:28;;;;;;;11.43;9.10;;;410.50;2355.20;;;;;;5049350;28;20022;-84
2023/06/05 04:45:00;;;;;;;14.45;8.45;;;410.50;2048.00;;;;;;5049191;28;20029;-84
2023/06/05 04:47:27;;;;;;;17.60;9.67;;;410.30;2355.20;;;;;;5060862;28;20064;-84
2023/06/05 04:49:54;;;;;;;18.08;10.18;;;410.30;2355.20;;;;;;5052807;28;20368;-84
2023/06/05 04:52:21;;;;;;;17.25;9.80;;;410.40;2355.20;;;;;;5070150;28;20024;-82
2023/06/05 04:54:47;;;;;;;22.80;9.35;;;435.20;2355.20;;;;;;5067946;28;20048;-83
2023/06/05 04:57:13;;;;;;;16.98;9.55;;;410.50;2355.20;;;;;;5053365;28;20388;-83
2023/06/05 04:59:40;;;;;;;22.00;10.90;;;410.50;2355.20;;;;;;5052112;28;20146;-83
2023/06/05 05:02:05;;;;;;;21.58;10.45;;;410.50;2355.20;;;;;;5052372;28;20119;-83
2023/06/05 05:04:32;;;;;;;18.23;10.95;;;410.40;2355.20;;;;;;5053365;28;20036;-83
2023/06/05 05:07:03;;;;;;;26.63;12.32;;;435.20;2355.20;;;;;;5051981;28;20078;-83
2023/06/05 05:09:33;;;;;;;19.50;12.27;;;435.30;2355.20;;;;;;5052252;28;20021;-83
2023/06/05 05:11:59;;;;;;;20.13;13.25;;;435.50;2355.20;;;;;;5052079;28;20049;-83
2023/06/05 05:14:27;;;;;;;20.77;12.85;;;435.60;2355.20;;;;;;5051746;28;20495;-83
2023/06/05 05:16:53;;;;;;;20.70;13.75;;;435.70;2355.20;;;;;;5052284;28;20033;-83
2023/06/05 05:19:19;;;;;;;18.83;12.85;;;435.80;2355.20;;;;;;5052133;28;20133;-83
2023/06/05 05:21:48;;;;;;;23.20;14.10;;;435.70;2355.20;;;;;;5051797;28;20502;-83
2023/06/05 05:24:14;;;;;;;25.80;14.48;;;435.60;2150.40;;;;;;5048147;28;20034;-81
2023/06/05 05:26:40;;;;;;;24.90;14.32;;;435.60;2355.20;;;;;;5034679;28;20389;-82
2023/06/05 05:29:07;;;;;;;23.73;15.05;;;435.60;2355.20;;;;;;5037082;28;20116;-83
2023/06/05 05:31:32;;;;;;;21.52;13.20;;;435.50;2355.20;;;;;;5035848;28;20022;-83
2023/06/05 05:33:58;;;;;;;22.10;12.90;;;435.60;2355.20;;;;;;5036675;28;20522;-83
2023/06/05 05:36:27;;;;;;;25.05;14.68;;;435.50;2355.20;;;;;;5035855;28;20043;-83
2023/06/05 05:38:54;;;;;;;21.73;14.90;;;435.40;2355.20;;;;;;5035678;28;20033;-83
2023/06/05 05:41:20;;;;;;;23.50;15.23;;;435.30;2355.20;;;;;;5035407;28;20381;-83
2023/06/05 05:43:47;;;;;;;21.50;14.13;;;435.50;2355.20;;;;;;5035505;28;20029;-82
2023/06/05 05:46:13;;;;;;;18.65;13.63;;;435.60;2355.20;;;;;;5035518;28;20029;-83
2023/06/05 05:48:38;;;;;;;19.42;14.20;;;435.60;2355.20;;;;;;5035355;28;20022;-83
2023/06/05 05:51:07;;;;;;;20.10;14.35;;;435.70;2355.20;;;;;;5035355;28;20137;-83
2023/06/05 05:53:33;;;;;;;28.08;14.68;;;435.80;2355.20;;;;;;5036530;28;20030;-83
2023/06/05 05:56:00;;;;;;;21.33;14.60;;;435.80;2355.20;;;;;;5035114;28;20353;-83
2023/06/05 05:58:26;;;;;;;23.00;15.52;;;435.80;2201.60;;;;;;5036657;28;20025;-83
2023/06/05 06:00:52;;;;;;;22.23;14.68;;;435.80;2355.20;;;;;;5035255;28;20025;-83
2023/06/05 06:03:19;;;;;;;27.20;16.73;;;435.80;2355.20;;;;;;5034968;28;20033;-83
2023/06/05 06:05:44;;;;;;;22.55;15.63;;;435.80;2355.20;;;;;;5034919;28;20054;-83
2023/06/05 06:08:11;;;;;;;24.63;16.10;;;435.80;2355.20;;;;;;5036183;28;20428;-83
2023/06/05 06:10:37;;;;;;;24.70;15.85;;;435.80;2355.20;;;;;;5034866;28;20096;-81
2023/06/05 06:13:04;;;;;;;24.13;17.77;;;436.10;2355.20;;;;;;5034961;28;20029;-82
2023/06/05 06:15:31;;;;;;;26.75;16.17;;;460.80;2380.80;;;;;;5035002;28;20530;-83
2023/06/05 06:17:57;;;;;;;27.38;16.35;;;460.80;2380.80;;;;;;5035734;28;20028;-82
2023/06/05 06:20:23;;;;;;;19.65;15.35;;;460.90;2380.80;;;;;;5034858;28;20021;-82
2023/06/05 06:22:49;;;;;;;20.67;14.05;;;460.90;2380.80;;;;;;5034485;28;20026;-82
2023/06/05 06:25:16;;;;;;;23.88;15.20;;;436.10;2355.20;;;;;;5034692;28;20025;-82
2023/06/05 06:27:45;;;;;;;23.67;15.30;;;436.10;2355.20;;;;;;5034859;28;20025;-82
2023/06/05 06:30:12;;;;;;;21.17;14.48;;;436.10;2355.20;;;;;;5034380;28;20366;-82
2023/06/05 06:32:38;;;;;;;20.98;14.65;;;460.80;2380.80;;;;;;5034449;28;20021;-82
2023/06/05 06:35:06;;;;;;;26.23;14.20;;;460.90;2380.80;;;;;;5036106;28;20037;-82
2023/06/05 06:37:32;;;;;;;18.90;14.52;;;460.90;2380.80;;;;;;5033473;28;20103;-82
2023/06/05 06:39:58;;;;;;;22.05;13.55;;;460.80;2380.80;;;;;;5034557;28;20029;-82
2023/06/05 06:42:26;;;;;;;18.70;13.40;;;461.10;2380.80;;;;;;5034476;28;20033;-82
2023/06/05 06:44:55;;;;;;;19.00;12.15;;;461.30;2380.80;;;;;;5034092;28;20026;-82
2023/06/05 06:47:25;;;;;;;16.95;12.95;;;461.40;2048.00;;;;;;5034190;28;20053;-82
2023/06/05 06:49:51;;;;;;;20.88;12.05;;;461.50;2124.80;;;;;;5034283;28;20040;-82
2023/06/05 06:52:18;;;;;;;17.85;10.52;;;461.60;2380.80;;;;;;5035235;28;20030;-82
2023/06/05 06:54:44;;;;;;;16.50;11.30;;;461.70;2380.80;;;;;;5034047;28;20033;-82
2023/06/05 06:57:10;;;;;;;14.30;11.55;;;461.70;2380.80;;;;;;5034057;28;20393;-82
2023/06/05 06:59:36;;;;;;;17.00;12.05;;;486.40;2380.80;;;;;;5035426;28;20033;-82
2023/06/05 07:02:17;;;;;;;16.48;12.38;;;486.40;2380.80;;;;;;5034086;28;20466;-82
2023/06/05 07:04:44;;;;;;;17.88;12.30;;;461.50;2380.80;;;;;;5033516;28;20049;-82
2023/06/05 07:07:14;;;;;;;18.75;12.18;;;461.70;2380.80;;;;;;5035470;28;20075;-81
2023/06/05 07:09:41;;;;;;;19.00;12.35;;;486.40;2380.80;;;;;;5033824;28;20572;-82
2023/06/05 07:12:11;;;;;;;16.95;10.98;;;486.50;2380.80;;;;;;5033439;28;20116;-82
2023/06/05 07:14:37;;;;;;;16.95;12.43;;;486.60;2380.80;;;;;;5033796;28;20040;-82
2023/06/05 07:17:03;;;;;;;24.88;14.60;;;486.70;2380.80;;;;;;5035010;28;20032;-81
2023/06/05 07:19:31;;;;;;;19.27;14.02;;;486.70;2380.80;;;;;;5034390;28;20055;-80
2023/06/05 07:21:57;;;;;;;18.13;12.88;;;486.70;2380.80;;;;;;5033617;28;20064;-82
2023/06/05 07:24:25;;;;;;;20.45;12.63;;;486.70;2380.80;;;;;;5033541;28;20060;-82
2023/06/05 07:26:55;;;;;;;18.13;11.70;;;486.90;2380.80;;;;;;5033216;28;20040;-82
2023/06/05 07:29:23;;;;;;;19.35;11.88;;;487.00;2380.80;;;;;;5034813;28;20450;-81
2023/06/05 07:31:49;;;;;;;18.83;11.18;;;487.00;2380.80;;;;;;5033427;28;20026;-82
2023/06/05 07:34:15;;;;;;;17.48;11.85;;;486.90;2380.80;;;;;;5033121;28;20057;-82
2023/06/05 07:36:41;;;;;;;17.48;11.23;;;486.90;2380.80;;;;;;5034735;28;20492;-81
2023/06/05 07:39:07;;;;;;;16.92;11.20;;;487.10;2380.80;;;;;;5033561;28;20129;-82
2023/06/05 07:41:33;;;;;;;19.25;11.57;;;487.20;2380.80;;;;;;5034048;28;20053;-81
2023/06/05 07:43:58;;;;;;;17.83;10.82;;;512.00;2380.80;;;;;;5033248;28;20033;-79
2023/06/05 07:46:24;;;;;;;18.10;10.73;;;512.00;2380.80;;;;;;5033284;28;20036;-78
2023/06/05 07:48:50;;;;;;;16.45;10.57;;;512.20;2380.80;;;;;;5032710;28;20040;-79
2023/06/05 07:51:18;;;;;;;18.98;11.68;;;512.30;2380.80;;;;;;5033179;28;20036;-79
2023/06/05 07:53:44;;;;;;;16.92;10.80;;;512.50;2380.80;;;;;;5032911;28;20030;-78
2023/06/05 07:56:11;;;;;;;13.20;10.25;;;512.40;2380.80;;;;;;5044503;28;20033;-78
2023/06/05 07:58:39;;;;;;;15.20;11.10;;;;;;;;;;5049606;28;20026;-78
2023/06/05 08:01:06;;;;;;;15.27;10.07;;;537.60;2406.40;;;;;;5033591;28;20373;-78
2023/06/05 08:03:32;;;;;;;13.93;9.57;;;512.90;2380.80;;;;;;5033099;28;20036;-78
2023/06/05 08:05:59;;;;;;;14.48;9.85;;;;;;;;;;5049131;28;20053;-78
2023/06/05 08:08:25;;;;;;;15.27;9.07;;;;;;;;;;5049065;28;20014;-82
2023/06/05 08:10:52;;;;;;;17.85;9.32;;;;;;;;;;5051761;28;20018;-81
2023/06/05 08:13:18;;;;;;;12.93;8.80;;;;;;;;;;5064982;28;20037;-81
2023/06/05 08:15:45;;;;;;;16.40;10.85;;;;;;;;;;5050065;28;20523;-82
2023/06/05 08:18:11;;;;;;;13.20;9.30;;;;;;;;;;5032952;28;20029;-83
2023/06/05 08:20:37;;;;;;;13.07;8.15;;;;;;;;;;5065779;28;20498;-83
2023/06/05 08:23:05;;;;;;;11.75;8.00;;;;;;;;;;5052336;28;20025;-83
2023/06/05 08:25:31;;;;;;;18.63;8.63;;;;;;;;;;5052623;28;20021;-84
2023/06/05 08:27:57;;;;;;;9.90;6.95;;;;;;;;;;5052540;28;20028;-85
2023/06/05 08:30:23;;;;;;;11.82;7.90;;;;;;;;;;5052423;28;20025;-84
2023/06/05 08:32:49;;;;;;;10.25;7.70;;;;;;;;;;5053813;28;20029;-84
2023/06/05 08:35:16;;;;;;;12.18;8.05;;;;;;;;;;5052624;28;20025;-83
2023/06/05 08:37:42;;;;;;;8.93;7.68;;;;;;;;;;5034950;28;20113;-83
2023/06/05 08:40:10;;;;;;;9.65;7.80;;;;;;;;;;5032554;28;20022;-83
2023/06/05 08:42:37;;;;;;;10.70;7.30;;;;;;;;;;5032228;28;20024;-83
2023/06/05 08:45:05;;;;;;;8.55;6.97;;;614.60;2432.00;;;;;;5032471;28;20057;-84
2023/06/05 08:47:31;;;;;;;10.55;7.40;;;614.50;2432.00;;;;;;5033520;28;20029;-83
2023/06/05 08:49:57;;;;;;;11.65;8.18;;;614.70;2432.00;;;;;;5031989;28;20026;-83
2023/06/05 08:52:24;;;;;;;13.30;7.22;;;;;;;;;;5032239;28;20025;-83
2023/06/05 08:54:50;;;;;;;11.73;7.57;;;;;;;;;;5032113;28;20072;-83
2023/06/05 08:57:16;;;;;;;13.65;8.45;;;615.10;2432.00;;;;;;5032625;28;20026;-83
2023/06/05 08:59:43;;;;;;;9.43;6.57;;;615.30;2432.00;;;;;;5033438;28;20390;-83
2023/06/05 09:02:11;;;;;;;7.38;6.57;;;640.10;2432.00;;;;;;5036334;28;20171;-86
2023/06/05 09:04:39;;;;;;;22.60;7.43;;;640.00;2432.00;;;;;;5036851;28;20061;-83
2023/06/05 09:07:06;;;;;;;12.02;7.72;;;640.20;2432.00;;;;;;5035822;28;20104;-82
2023/06/05 09:09:34;;;;;;;14.35;9.57;;;640.30;2432.00;;;;;;5035799;28;20032;-83
2023/06/05 09:12:05;;;;;;;11.07;6.43;;;640.30;2432.00;;;;;;5036041;28;20049;-83
2023/06/05 09:14:31;;;;;;;10.93;7.28;;;640.40;2432.00;;;;;;5035966;28;20040;-83
2023/06/05 09:16:58;;;;;;;11.23;6.43;;;640.40;2432.00;;;;;;5035940;28;20473;-83
2023/06/05 09:19:27;;;;;;;11.50;7.88;;;640.40;2432.00;;;;;;5035682;28;20030;-82
2023/06/05 09:21:54;;;;;;;10.15;6.78;;;640.40;2432.00;;;;;;5037060;28;20496;-83
2023/06/05 09:24:25;;;;;;;11.05;7.00;;;640.50;2432.00;;;;;;5038443;28;20033;-83
2023/06/05 09:27:08;;;;;;;12.93;7.18;;;640.60;2432.00;;;;;;5054818;28;20025;-82
2023/06/05 09:29:36;;;;;;;12.98;7.55;;;640.80;2432.00;;;;;;5055843;28;20043;-83
2023/06/05 09:32:07;;;;;;;9.32;6.97;;;665.70;2432.00;;;;;;5055492;28;20061;-83
2023/06/05 09:34:38;;;;;;;20.40;6.60;;;665.60;2432.00;;;;;;5055961;28;20124;-83
2023/06/05 09:37:08;;;;;;;8.25;6.80;;;665.60;2432.00;;;;;;5055965;28;20025;-84
2023/06/05 09:39:36;;;;;;;9.00;7.13;;;665.60;2432.00;;;;;;5055755;28;20032;-83
2023/06/05 09:42:02;;;;;;;10.18;8.35;;;665.70;2432.00;;;;;;5055647;28;20424;-83
2023/06/05 09:44:29;;;;;;;9.02;7.50;;;665.60;2432.00;;;;;;5055653;28;20059;-84
2023/06/05 09:46:59;;;;;;;9.60;6.85;;;665.70;2432.00;;;;;;5055139;28;20033;-83
2023/06/05 09:49:38;;;;;;;13.15;9.68;;;665.90;2432.00;;;;;;5056785;28;20063;-84
2023/06/05 09:52:04;;;;;;;18.15;8.65;;;666.10;2432.00;;;;;;5072433;28;20442;-84
2023/06/05 09:54:31;;;;;;;18.45;6.70;;;666.30;2432.00;;;;;;5072017;28;20071;-81
2023/06/05 09:57:00;;;;;;;12.55;9.25;;;666.50;2432.00;;;;;;5072497;28;20056;-82
2023/06/05 09:59:31;;;;;;;9.73;6.35;;;691.30;2432.00;;;;;;5072197;28;20029;-81
2023/06/05 10:02:01;;;;;;;10.90;7.80;;;691.40;2432.00;;;;;;5071849;28;20025;-82
2023/06/05 10:04:30;;;;;;;9.02;6.75;;;691.50;2432.00;;;;;;5072010;28;20098;-82
2023/06/05 10:07:01;;;;;;;11.40;7.28;;;691.60;2432.00;;;;;;5071677;28;20029;-82
2023/06/05 10:09:29;;;;;;;11.50;8.15;;;691.60;2432.00;;;;;;5072323;28;20357;-81
2023/06/05 10:11:55;;;;;;;12.55;7.75;;;691.80;2432.00;;;;;;5072292;28;20033;-81
2023/06/05 10:14:21;;;;;;;13.73;7.43;;;691.90;2432.00;;;;;;5071711;28;20036;-82
2023/06/05 10:16:52;;;;;;;9.00;7.57;;;691.90;2432.00;;;;;;5072134;28;20025;-82
2023/06/05 10:19:20;;;;;;;8.93;6.53;;;692.00;2432.00;;;;;;5072097;28;20028;-83
2023/06/05 10:21:50;;;;;;;8.25;6.25;;;692.10;2432.00;;;;;;5071737;28;20025;-82
2023/06/05 10:24:21;;;;;;;12.00;6.97;;;716.80;2432.00;;;;;;5071741;28;20037;-82
2023/06/05 10:27:06;;;;;;;10.93;6.63;;;717.00;2432.00;;;;;;5056308;28;20017;-82
2023/06/05 10:29:34;;;;;;;9.95;8.02;;;717.10;2432.00;;;;;;5054754;28;20487;-82
2023/06/05 10:32:05;;;;;;;15.32;10.55;;;717.20;2432.00;;;;;;5071597;28;20029;-82
2023/06/05 10:35:15;;;;;;;12.35;9.10;;;717.20;2432.00;;;;;;5054694;28;20081;-82
2023/06/05 10:37:55;;;;;;;11.00;8.27;;;717.30;2432.00;;;;;;5071547;28;20061;-81
2023/06/05 10:40:23;;;;;;;8.98;7.75;;;717.40;2432.00;;;;;;5071559;28;20025;-81
2023/06/05 10:42:49;;;;;;;9.77;7.30;;;717.50;2432.00;;;;;;5055802;28;20529;-82
2023/06/05 10:45:31;;;;;;;7.70;6.72;;;717.60;2432.00;;;;;;5071511;28;20050;-83
2023/06/05 10:47:57;;;;;;;;;;;742.40;2432.00;;;;;;5071892;28;20025;-83
2023/06/05 10:50:25;;;;;;;9.45;7.10;;;742.40;2432.00;;;;;;5054271;28;19912;-82
2023/06/05 10:52:53;;;;;;;10.95;7.50;;;742.40;2432.00;;;;;;5070926;28;20021;-82
2023/06/05 10:55:20;;;;;;;11.85;7.75;;;742.50;2432.00;;;;;;5055651;28;20097;-82
2023/06/05 10:58:00;;;;;;;10.77;7.30;;;742.80;2432.00;;;;;;5070407;28;20025;-81
2023/06/05 11:00:30;;;;;;;13.75;7.28;;;742.70;2432.00;;;;;;5055458;28;20033;-81
2023/06/05 11:02:57;;;;;;;6.80;5.97;;;742.70;2432.00;;;;;;5070179;28;20027;-83
2023/06/05 11:05:23;;;;;;;8.27;6.75;;;742.80;2432.00;;;;;;5070211;28;20041;-81
2023/06/05 11:08:09;;;;;;;13.02;8.02;;;;;;;;;;5070513;28;20079;-82
2023/06/05 11:10:35;;;;;;;13.30;7.30;;;743.10;2432.00;;;;;;5069857;28;20082;-82
2023/06/05 11:13:02;;;;;;;7.10;6.40;;;743.10;2432.00;;;;;;5070250;28;20028;-84
2023/06/05 11:15:38;;;;;;;9.20;6.72;;;768.10;2432.00;;;;;;5070614;28;20128;-84
2023/06/05 11:18:29;;;;;;;7.80;6.72;;;743.10;2406.40;;;;;;5070377;28;20453;-83
2023/06/05 11:20:56;;;;;;;10.73;7.23;;;743.20;2432.00;;;;;;5070671;28;20182;-83
2023/06/05 11:23:27;;;;;;;13.00;7.88;;;;;;;;;;5070082;28;20064;-84
2023/06/05 11:25:56;;;;;;;11.02;8.02;;;;;;;;;;5070241;28;20053;-83
2023/06/05 11:28:41;;;;;;;9.75;8.20;;;;;;;;;;5070144;28;20036;-85
2023/06/05 11:31:07;;;;;;;11.48;7.68;;;;;;;;;;5053207;28;20120;-82
2023/06/05 11:33:34;;;;;;;14.98;13.05;;;;;;;;;;5042164;28;20029;-83
2023/06/05 11:36:09;;;;;;;17.42;12.18;;;;;;;;;;5033461;28;20025;-84
2023/06/05 11:38:36;;;;;;;12.90;11.55;;;;;;;;;;5033759;28;20026;-86
2023/06/05 11:41:07;;;;;;;18.52;16.63;;;;;;;;;;5034037;28;20028;-84
2023/06/05 11:43:33;;;;;;;11.85;10.65;;;;;;;;;;5035363;28;20488;-81
2023/06/05 11:45:59;;;;;;;12.63;7.97;;;;;;;;;;5040014;28;20019;-84
2023/06/05 11:48:26;;;;;;;11.38;8.50;;;;;;;;;;5049772;28;20117;-81
2023/06/05 11:50:54;;;;;;;11.73;8.18;;;;;;;;;;5044444;28;20021;-82
2023/06/05 11:53:20;;;;;;;16.08;9.32;;;;;;;;;;5032852;28;20079;-82
2023/06/05 11:58:22;;;;;;;13.40;10.63;;;;;;;;;;5034366;28;20048;-82
2023/06/05 12:00:49;;;;;;;12.05;9.63;;;717.40;2432.00;;;;;;5032541;28;20022;-82
2023/06/05 12:03:19;;;;;;;13.80;9.25;;;;;;;;;;5033347;28;20057;-83
2023/06/05 12:05:45;;;;;;;12.48;10.70;;;717.20;2432.00;;;;;;5032460;28;20052;-83
2023/06/05 12:08:25;;;;;;;11.43;8.35;;;717.20;2432.00;;;;;;5032858;28;20087;-81
2023/06/05 12:10:52;;;;;;;12.07;8.52;;;717.10;2432.00;;;;;;5032608;28;20032;-82
2023/06/05 12:13:18;;;;;;;21.08;10.15;;;717.00;2432.00;;;;;;5032494;28;20029;-83
2023/06/05 12:15:57;;;;;;;10.32;8.00;;;717.20;2432.00;;;;;;5033285;28;20055;-82
2023/06/05 12:18:32;;;;;;;19.02;13.00;;;717.50;2432.00;;;;;;5032849;28;20036;-82
2023/06/05 12:20:58;;;;;;;13.15;11.70;;;742.40;2432.00;;;;;;5032562;28;20458;-85
2023/06/05 12:23:24;;;;;;;14.93;9.38;;;;;;;;;;5032442;28;20034;-82
2023/06/05 12:26:03;;;;;;;12.55;9.13;;;;;;;;;;5033925;28;20513;-82
2023/06/05 12:28:30;;;;;;;12.60;7.72;;;;;;;;;;5032423;28;20025;-83